Station Historical Data
Daily Summary for October 27, 2017 Units:  Metric    English   Both
« Previous Day
Next Day »
Daily Weekly Monthly Yearly Custom
  High: Low: Average:
Temperature: 20.9 °C 2 °C 10.9 °C
Dew Point: 9.4 °C 0.1 °C 4.8 °C
Humidity: 90% 42% 68%
Wind Speed: 11.3km/h 0km/h 2.1km/h
Wind Gust: 20.9km/h - -
Wind- - South
Pressure: 1014.1 hPa 1009 hPa -
Precipitation: 0 mm    
Historical Graphs
 
 
Tabular Data for October 27, 2017
Time Temperature Dew Point Pressure Wind Wind Speed Wind Gust Humidity Rainfall Rate (Hourly)
00:04 2.7 °C 0.4 °C 1013.1 hPa Calm     85% 0 mm
00:09 2.7 °C 0.6 °C 1013.1 hPa Calm     86% 0 mm
00:14 2.6 °C 0.5 °C 1013.1 hPa Calm     86% 0 mm
00:19 2.6 °C 0.5 °C 1013.1 hPa Calm     86% 0 mm
00:24 2.6 °C 0.4 °C 1013.4 hPa Calm     86% 0 mm
00:29 2.4 °C 0.3 °C 1013.4 hPa Calm     86% 0 mm
00:34 2.4 °C 0.3 °C 1013.4 hPa Calm     86% 0 mm
00:39 2.3 °C 0.4 °C 1013.4 hPa Calm     87% 0 mm
00:44 2.3 °C 0.3 °C 1013.4 hPa Calm     87% 0 mm
00:49 2.2 °C 0.3 °C 1013.4 hPa Calm     87% 0 mm
00:54 2.1 °C 0.1 °C 1013.4 hPa Calm     87% 0 mm
00:59 2 °C 0.2 °C 1013.4 hPa Calm     88% 0 mm
01:04 2 °C 0.2 °C 1013.4 hPa Calm     88% 0 mm
01:09 2.1 °C 0.3 °C 1013.4 hPa Calm     88% 0 mm
01:14 2.1 °C 0.3 °C 1013.4 hPa Calm     88% 0 mm
01:19 2.1 °C 0.3 °C 1013.4 hPa Calm     88% 0 mm
01:24 2.1 °C 0.4 °C 1013.4 hPa Calm     89% 0 mm
01:29 2.1 °C 0.4 °C 1013.4 hPa Calm     89% 0 mm
01:34 2.2 °C 0.6 °C 1013.4 hPa Calm     89% 0 mm
01:39 2.2 °C 0.6 °C 1013.1 hPa Calm     89% 0 mm
01:44 2.1 °C 0.4 °C 1013.4 hPa Calm     89% 0 mm
01:49 2.1 °C 0.4 °C 1013.4 hPa Calm     89% 0 mm
01:54 2.2 °C 0.6 °C 1013.4 hPa Calm     89% 0 mm
01:59 2.4 °C 0.9 °C 1013.4 hPa Calm     90% 0 mm
02:04 2.6 °C 1.1 °C 1013.1 hPa Calm     90% 0 mm
02:09 2.9 °C 1.4 °C 1013.1 hPa Calm     90% 0 mm
02:14 3.1 °C 1.6 °C 1013.4 hPa Calm     90% 0 mm
02:19 3.2 °C 1.7 °C 1013.4 hPa Calm     90% 0 mm
02:24 3.3 °C 1.8 °C 1013.4 hPa Calm     90% 0 mm
02:29 3.3 °C 1.8 °C 1013.4 hPa Calm     90% 0 mm
02:34 3.2 °C 1.6 °C 1013.4 hPa Calm     89% 0 mm
02:39 3.2 °C 1.6 °C 1013.4 hPa Calm     89% 0 mm
02:44 3.2 °C 1.6 °C 1013.4 hPa Calm     89% 0 mm
02:49 3.3 °C 1.8 °C 1013.8 hPa Calm     90% 0 mm
02:54 3.4 °C 1.7 °C 1013.8 hPa Calm     89% 0 mm
02:59 3.4 °C 1.7 °C 1013.8 hPa Calm     89% 0 mm
03:04 3.3 °C 1.7 °C 1013.8 hPa Calm     89% 0 mm
03:09 3.3 °C 1.7 °C 1013.8 hPa Calm     89% 0 mm
03:14 3.4 °C 1.7 °C 1013.8 hPa Calm     89% 0 mm
03:19 3.4 °C 1.8 °C 1013.8 hPa Calm     89% 0 mm
03:24 3.5 °C 1.8 °C 1013.8 hPa Calm     89% 0 mm
03:29 3.5 °C 1.8 °C 1013.8 hPa Calm     89% 0 mm
03:34 3.6 °C 1.9 °C 1013.8 hPa Calm     89% 0 mm
03:39 3.8 °C 2.1 °C 1013.8 hPa Calm     89% 0 mm
03:44 3.9 °C 2.3 °C 1013.8 hPa Calm     89% 0 mm
03:49 4.1 °C 2.4 °C 1013.8 hPa Calm     89% 0 mm
03:54 4.2 °C 2.6 °C 1013.8 hPa Calm     89% 0 mm
03:59 4.5 °C 2.7 °C 1013.8 hPa Calm     88% 0 mm
04:04 4.8 °C 2.9 °C 1014.1 hPa Calm   3.2 km/h 88% 0 mm
04:09 5.1 °C 3.1 °C 1013.8 hPa Calm   3.2 km/h 87% 0 mm
04:14 5.2 °C 3.1 °C 1014.1 hPa Calm   3.2 km/h 86% 0 mm
04:19 5.4 °C 3.2 °C 1014.1 hPa Calm   3.2 km/h 86% 0 mm
04:24 5.6 °C 3.2 °C 1014.1 hPa Calm     85% 0 mm
04:29 5.7 °C 3.2 °C 1014.1 hPa Calm     84% 0 mm
04:34 5.6 °C 3.1 °C 1014.1 hPa Calm     84% 0 mm
04:39 5.4 °C 2.9 °C 1014.1 hPa Calm     84% 0 mm
04:44 5.3 °C 2.8 °C 1014.1 hPa Calm     84% 0 mm
04:49 5.2 °C 2.7 °C 1014.1 hPa Calm     84% 0 mm
04:54 5.2 °C 2.7 °C 1014.1 hPa Calm     84% 0 mm
04:59 5.1 °C 2.6 °C 1014.1 hPa Calm     84% 0 mm
05:04 5 °C 2.5 °C 1014.1 hPa Calm     84% 0 mm
05:09 5 °C 2.5 °C 1014.1 hPa Calm     84% 0 mm
05:14 5.1 °C 2.6 °C 1014.1 hPa Calm   1.6 km/h 84% 0 mm
05:19 5.1 °C 2.4 °C 1014.1 hPa Calm   1.6 km/h 83% 0 mm
05:24 5.3 °C 2.4 °C 1014.1 hPa Calm   3.2 km/h 82% 0 mm
05:29 5.4 °C 2.6 °C 1014.1 hPa Calm   3.2 km/h 82% 0 mm
05:34 5.5 °C 2.5 °C 1014.1 hPa South 1.6 km/h 3.2 km/h 81% 0 mm
05:39 5.7 °C 2.5 °C 1014.1 hPa Calm   4.8 km/h 80% 0 mm
05:44 5.7 °C 2.4 °C 1014.1 hPa Calm   4.8 km/h 79% 0 mm
05:49 5.7 °C 2.4 °C 1014.1 hPa South 1.6 km/h 3.2 km/h 79% 0 mm
05:54 5.8 °C 2.4 °C 1014.1 hPa Calm   3.2 km/h 79% 0 mm
05:59 5.9 °C 2.4 °C 1014.1 hPa South 1.6 km/h 4.8 km/h 78% 0 mm
06:04 6 °C 2.4 °C 1014.1 hPa South 3.2 km/h 4.8 km/h 78% 0 mm
06:09 6 °C 2.4 °C 1014.1 hPa Calm   4.8 km/h 78% 0 mm
06:14 6 °C 2.4 °C 1014.1 hPa Calm   4.8 km/h 78% 0 mm
06:19 5.9 °C 2.4 °C 1014.1 hPa Calm   3.2 km/h 78% 0 mm
06:24 5.9 °C 2.4 °C 1014.1 hPa Calm     78% 0 mm
06:29 5.8 °C 2.3 °C 1013.8 hPa Calm     78% 0 mm
06:34 5.8 °C 2.2 °C 1013.8 hPa Calm     78% 0 mm
06:39 5.7 °C 2.2 °C 1014.1 hPa Calm     78% 0 mm
06:44 5.7 °C 2.1 °C 1014.1 hPa Calm     78% 0 mm
06:49 5.5 °C 2.2 °C 1013.8 hPa Calm     79% 0 mm
06:54 5.4 °C 2.1 °C 1013.8 hPa Calm     79% 0 mm
06:59 5.3 °C 2.2 °C 1013.4 hPa Calm     80% 0 mm
07:04 5.3 °C 2.1 °C 1013.4 hPa Calm     80% 0 mm
07:09 5.2 °C 2.1 °C 1013.8 hPa Calm     80% 0 mm
07:14 5.2 °C 2 °C 1013.4 hPa Calm     80% 0 mm
07:19 5.2 °C 2 °C 1013.4 hPa Calm     80% 0 mm
07:24 5.1 °C 2.1 °C 1013.4 hPa Calm     81% 0 mm
07:29 5.1 °C 2.1 °C 1013.4 hPa Calm     81% 0 mm
07:34 5.1 °C 2.1 °C 1013.4 hPa Calm     81% 0 mm
07:39 5 °C 2 °C 1013.8 hPa Calm     81% 0 mm
07:44 5 °C 2 °C 1013.8 hPa Calm     81% 0 mm
07:49 4.9 °C 1.9 °C 1013.8 hPa Calm     81% 0 mm
07:54 4.9 °C 1.9 °C 1013.4 hPa Calm     81% 0 mm
07:59 5 °C 2 °C 1013.4 hPa Calm   4.8 km/h 81% 0 mm
08:04 5.1 °C 2.1 °C 1013.4 hPa Calm   4.8 km/h 81% 0 mm
08:09 5.2 °C 2.2 °C 1013.4 hPa Calm   4.8 km/h 81% 0 mm
08:14 5.3 °C 2.1 °C 1013.8 hPa SSE 3.2 km/h 6.4 km/h 80% 0 mm
08:19 5.4 °C 2.3 °C 1013.8 hPa SSE 3.2 km/h 6.4 km/h 80% 0 mm
08:24 5.6 °C 2.2 °C 1013.8 hPa SSE 3.2 km/h 6.4 km/h 79% 0 mm
08:29 5.7 °C 2.3 °C 1013.8 hPa SSE 1.6 km/h 9.7 km/h 79% 0 mm
08:34 5.8 °C 2.2 °C 1013.8 hPa ESE 3.2 km/h 8 km/h 78% 0 mm
08:39 5.8 °C 2.3 °C 1013.4 hPa Calm   9.7 km/h 78% 0 mm
08:44 6 °C 2.4 °C 1013.4 hPa Calm   8 km/h 78% 0 mm
08:49 6.1 °C 2.3 °C 1013.4 hPa ESE 3.2 km/h 8 km/h 77% 0 mm
08:54 6.2 °C 2.4 °C 1013.4 hPa SE 1.6 km/h 8 km/h 77% 0 mm
08:59 6.3 °C 2.6 °C 1013.4 hPa SE 1.6 km/h 6.4 km/h 77% 0 mm
09:04 6.5 °C 2.8 °C 1013.4 hPa ESE 1.6 km/h 8 km/h 77% 0 mm
09:09 6.7 °C 2.9 °C 1013.4 hPa ESE 1.6 km/h 8 km/h 77% 0 mm
09:14 6.8 °C 2.9 °C 1013.4 hPa Calm   9.7 km/h 76% 0 mm
09:19 7.1 °C 3.1 °C 1013.4 hPa Calm     76% 0 mm
09:24 7.3 °C 3.2 °C 1013.4 hPa SSE 1.6 km/h 6.4 km/h 75% 0 mm
09:29 7.6 °C 3.4 °C 1013.4 hPa ESE 1.6 km/h 8 km/h 75% 0 mm
09:39 7.7 °C 3.4 °C 1013.1 hPa ESE 1.6 km/h 8 km/h 74% 0 mm
09:49 7.9 °C 3.3 °C 1013.1 hPa ESE 3.2 km/h 8 km/h 73% 0 mm
09:54 8.1 °C 3.5 °C 1013.1 hPa ENE 1.6 km/h 6.4 km/h 73% 0 mm
09:59 8.3 °C 3.7 °C 1012.8 hPa ESE 3.2 km/h 8 km/h 73% 0 mm
10:04 8.4 °C 3.7 °C 1012.8 hPa ESE 3.2 km/h 8 km/h 72% 0 mm
10:09 8.7 °C 3.7 °C 1012.8 hPa East 1.6 km/h 11.3 km/h 71% 0 mm
10:14 8.8 °C 3.8 °C 1012.4 hPa SE 3.2 km/h 11.3 km/h 71% 0 mm
10:19 9.1 °C 3.7 °C 1012.4 hPa ESE 3.2 km/h 8 km/h 69% 0 mm
10:24 9.3 °C 3.7 °C 1012.4 hPa ESE 3.2 km/h 8 km/h 68% 0 mm
10:29 9.6 °C 3.7 °C 1012.4 hPa SE 9.7 km/h 9.7 km/h 67% 0 mm
10:34 9.7 °C 3.9 °C 1012.4 hPa ESE 3.2 km/h 9.7 km/h 67% 0 mm
10:39 9.9 °C 4.1 °C 1012.4 hPa ESE 3.2 km/h 9.7 km/h 67% 0 mm
10:44 10.1 °C 4.1 °C 1012.1 hPa ESE 3.2 km/h 8 km/h 66% 0 mm
10:49 10.2 °C 4.4 °C 1012.1 hPa ESE 3.2 km/h 8 km/h 67% 0 mm
10:54 10.5 °C 4.4 °C 1012.1 hPa ESE 3.2 km/h 8 km/h 66% 0 mm
10:59 10.6 °C 4.4 °C 1012.1 hPa Calm   6.4 km/h 66% 0 mm
11:04 10.7 °C 4.4 °C 1012.1 hPa ESE 6.4 km/h 8 km/h 65% 0 mm
11:09 11 °C 4.7 °C 1011.7 hPa SE 3.2 km/h 8 km/h 65% 0 mm
11:14 11.2 °C 4.7 °C 1012.1 hPa SE 3.2 km/h 16.1 km/h 64% 0 mm
11:19 11.3 °C 4.3 °C 1012.1 hPa SSE 1.6 km/h 16.1 km/h 62% 0 mm
11:24 11.6 °C 4.5 °C 1011.7 hPa ESE 1.6 km/h 8 km/h 62% 0 mm
11:29 11.6 °C 4.3 °C 1011.7 hPa SE 8 km/h 11.3 km/h 61% 0 mm
11:34 11.9 °C 4.8 °C 1011.7 hPa SE 1.6 km/h 8 km/h 62% 0 mm
11:39 12.2 °C 4.9 °C 1012.1 hPa ESE 1.6 km/h 6.4 km/h 61% 0 mm
11:44 12.3 °C 4.6 °C 1012.1 hPa SE 1.6 km/h 6.4 km/h 59% 0 mm
11:49 12.6 °C 5 °C 1012.1 hPa SE 1.6 km/h 9.7 km/h 60% 0 mm
11:54 12.7 °C 4.8 °C 1012.1 hPa SSE 3.2 km/h 9.7 km/h 59% 0 mm
11:59 12.8 °C 4.8 °C 1011.7 hPa SE 3.2 km/h 8 km/h 58% 0 mm
12:04 13 °C 4.9 °C 1011.7 hPa SSE 4.8 km/h 8 km/h 58% 0 mm
12:09 13.4 °C 5.1 °C 1011.7 hPa SE 8 km/h 12.9 km/h 57% 0 mm
12:14 13.6 °C 5.2 °C 1011.7 hPa SE 4.8 km/h 8 km/h 57% 0 mm
12:19 13.7 °C 5.3 °C 1011.4 hPa SE 4.8 km/h 11.3 km/h 57% 0 mm
12:24 13.8 °C 5.2 °C 1011.4 hPa SE 3.2 km/h 12.9 km/h 56% 0 mm
12:29 14.1 °C 5.4 °C 1011.1 hPa SE 3.2 km/h 9.7 km/h 56% 0 mm
12:34 14.2 °C 5.2 °C 1011.1 hPa Calm   6.4 km/h 55% 0 mm
12:39 14.2 °C 5.6 °C 1011.1 hPa SE 1.6 km/h 6.4 km/h 56% 0 mm
12:44 14.3 °C 5.7 °C 1011.1 hPa SE 4.8 km/h 11.3 km/h 56% 0 mm
12:49 14.6 °C 5.9 °C 1010.7 hPa SE 3.2 km/h 11.3 km/h 56% 0 mm
12:54 15.1 °C 5.8 °C 1010.7 hPa SE 3.2 km/h 8 km/h 54% 0 mm
12:59 15.3 °C 5.7 °C 1010.7 hPa SE 3.2 km/h 9.7 km/h 53% 0 mm
13:04 15.6 °C 6.6 °C 1010.7 hPa SSE 4.8 km/h 8 km/h 55% 0 mm
13:09 15.7 °C 5.8 °C 1010.7 hPa SSE 4.8 km/h 9.7 km/h 52% 0 mm
13:14 16.1 °C 6.8 °C 1010.4 hPa South 1.6 km/h 9.7 km/h 54% 0 mm
13:19 16.3 °C 6.7 °C 1010.4 hPa SSE 3.2 km/h 9.7 km/h 53% 0 mm
13:24 16.6 °C 6.7 °C 1010.4 hPa SSE 4.8 km/h 9.7 km/h 52% 0 mm
13:29 17 °C 7.1 °C 1010.4 hPa SSE 4.8 km/h 11.3 km/h 52% 0 mm
13:34 17.2 °C 6.9 °C 1010.4 hPa SSE 4.8 km/h 11.3 km/h 51% 0 mm
13:39 17.6 °C 7.6 °C 1010.4 hPa South 4.8 km/h 12.9 km/h 52% 0 mm
13:44 18.1 °C 7.2 °C 1010 hPa SW 8 km/h 14.5 km/h 49% 0 mm
13:49 18.3 °C 7.7 °C 1010 hPa South 4.8 km/h 14.5 km/h 50% 0 mm
13:54 18.8 °C 7.6 °C 1010 hPa SSW 8 km/h 17.7 km/h 48% 0 mm
13:59 19.3 °C 8 °C 1010 hPa SSW 6.4 km/h 19.3 km/h 48% 0 mm
14:04 18.9 °C 7.1 °C 1010 hPa SW 8 km/h 19.3 km/h 46% 0 mm
14:09 19.1 °C 7.5 °C 1010 hPa SSW 11.3 km/h 19.3 km/h 47% 0 mm
14:14 18.9 °C 7.1 °C 1010 hPa WSW 8 km/h 16.1 km/h 46% 0 mm
14:19 19.3 °C 7.7 °C 1010 hPa SSW 8 km/h 14.5 km/h 47% 0 mm
14:24 19.2 °C 7.3 °C 1009.7 hPa SW 4.8 km/h 12.9 km/h 46% 0 mm
14:29 19.3 °C 7.1 °C 1009.7 hPa SSW 6.4 km/h 12.9 km/h 45% 0 mm
14:34 19.4 °C 7.8 °C 1009.7 hPa SSW 6.4 km/h 12.9 km/h 47% 0 mm
14:39 19.6 °C 7.3 °C 1009.7 hPa SSW 4.8 km/h 12.9 km/h 45% 0 mm
14:44 19.4 °C 7.4 °C 1009.7 hPa SSW 3.2 km/h 14.5 km/h 46% 0 mm
14:49 19.6 °C 7.6 °C 1009.4 hPa WSW 4.8 km/h 14.5 km/h 46% 0 mm
14:54 19.8 °C 7.5 °C 1009.4 hPa SW 6.4 km/h 11.3 km/h 45% 0 mm
14:59 19.8 °C 8.8 °C 1009.4 hPa SW 4.8 km/h 11.3 km/h 49% 0 mm
15:04 19.7 °C 7.4 °C 1009.4 hPa SW 4.8 km/h 11.3 km/h 45% 0 mm
15:09 19.9 °C 8.2 °C 1009.4 hPa SW 4.8 km/h 11.3 km/h 47% 0 mm
15:14 20.2 °C 7.8 °C 1009 hPa SW 4.8 km/h 11.3 km/h 45% 0 mm
15:19 20.4 °C 7.8 °C 1009 hPa West 3.2 km/h 17.7 km/h 44% 0 mm
15:24 20.6 °C 8.6 °C 1009 hPa NW 9.7 km/h 14.5 km/h 46% 0 mm
15:29 20.4 °C 8.4 °C 1009 hPa West 1.6 km/h 8 km/h 46% 0 mm
15:34 20.7 °C 8.6 °C 1009 hPa West 4.8 km/h 9.7 km/h 46% 0 mm
15:39 20.7 °C 8.7 °C 1009.4 hPa WSW 3.2 km/h 9.7 km/h 46% 0 mm
15:44 20.7 °C 8.3 °C 1009 hPa West 3.2 km/h 12.9 km/h 45% 0 mm
15:49 20.9 °C 9.4 °C 1009 hPa SSW 4.8 km/h 9.7 km/h 48% 0 mm
15:54 20.9 °C 8.2 °C 1009 hPa SW 3.2 km/h 8 km/h 44% 0 mm
15:59 20.8 °C 7.4 °C 1009 hPa SW 3.2 km/h 6.4 km/h 42% 0 mm
16:04 20.8 °C 8.1 °C 1009 hPa SSW 4.8 km/h 8 km/h 44% 0 mm
16:09 20.8 °C 7.7 °C 1009 hPa SW 3.2 km/h 8 km/h 43% 0 mm
16:14 20.8 °C 8.1 °C 1009 hPa SW 3.2 km/h 11.3 km/h 44% 0 mm
16:19 20.8 °C 8.4 °C 1009 hPa WSW 3.2 km/h 11.3 km/h 45% 0 mm
16:24 20.6 °C 8.3 °C 1009 hPa WSW 3.2 km/h 9.7 km/h 45% 0 mm
16:29 20.5 °C 8.2 °C 1009 hPa WSW 4.8 km/h 9.7 km/h 45% 0 mm
16:34 20.4 °C 8.4 °C 1009 hPa West 6.4 km/h 6.4 km/h 46% 0 mm
16:39 20.3 °C 8.3 °C 1009 hPa WSW 3.2 km/h 8 km/h 46% 0 mm
16:44 20.2 °C 7.8 °C 1009.4 hPa WNW 3.2 km/h 6.4 km/h 45% 0 mm
16:49 20 °C 7.7 °C 1009 hPa West 4.8 km/h 8 km/h 45% 0 mm
16:54 19.8 °C 7.9 °C 1009.4 hPa West 4.8 km/h 6.4 km/h 46% 0 mm
16:59 19.8 °C 7.5 °C 1009.4 hPa West 1.6 km/h 6.4 km/h 45% 0 mm
17:04 19.6 °C 8 °C 1009.4 hPa West 1.6 km/h 4.8 km/h 47% 0 mm
17:09 19.4 °C 7.5 °C 1009.4 hPa West 1.6 km/h 6.4 km/h 46% 0 mm
17:14 19.2 °C 7.6 °C 1009.4 hPa WSW 3.2 km/h 6.4 km/h 47% 0 mm
17:19 18.9 °C 7.7 °C 1009.4 hPa WSW 3.2 km/h 6.4 km/h 48% 0 mm
17:24 18.8 °C 7.8 °C 1009.4 hPa WSW 3.2 km/h 8 km/h 49% 0 mm
17:29 18.5 °C 7.6 °C 1009.4 hPa SW 1.6 km/h 8 km/h 49% 0 mm
17:34 18.3 °C 7.7 °C 1009.4 hPa SW 1.6 km/h 4.8 km/h 50% 0 mm
17:39 18.1 °C 7.8 °C 1009.4 hPa Calm   4.8 km/h 51% 0 mm
17:44 18 °C 7.7 °C 1009.4 hPa Calm   4.8 km/h 51% 0 mm
17:49 17.9 °C 7.9 °C 1009.4 hPa West 1.6 km/h 4.8 km/h 52% 0 mm
17:54 17.6 °C 7.6 °C 1009.7 hPa Calm     52% 0 mm
17:59 17.3 °C 7.7 °C 1009.7 hPa Calm     53% 0 mm
18:04 16.9 °C 7.6 °C 1009.7 hPa Calm     54% 0 mm
18:09 16.7 °C 7.6 °C 1009.7 hPa Calm     55% 0 mm
18:14 16.3 °C 7.6 °C 1009.7 hPa Calm     56% 0 mm
18:19 15.9 °C 7.6 °C 1010 hPa Calm     58% 0 mm
18:24 15.3 °C 7.6 °C 1010 hPa Calm     60% 0 mm
18:29 14.7 °C 7.7 °C 1010 hPa Calm     63% 0 mm
18:34 14.3 °C 7.6 °C 1010 hPa Calm     64% 0 mm
18:39 13.9 °C 7.7 °C 1010.4 hPa Calm     66% 0 mm
18:44 13.7 °C 7.7 °C 1010.4 hPa Calm     67% 0 mm
18:49 13.6 °C 7.8 °C 1010.4 hPa Calm     68% 0 mm
18:54 13.3 °C 7.7 °C 1010.4 hPa Calm     69% 0 mm
18:59 13.2 °C 7.6 °C 1010.4 hPa Calm     69% 0 mm
19:04 13 °C 7.7 °C 1010.4 hPa Calm     70% 0 mm
19:09 12.7 °C 7.6 °C 1010.4 hPa Calm     71% 0 mm
19:14 12.6 °C 7.7 °C 1010.4 hPa Calm     72% 0 mm
19:19 12.6 °C 7.7 °C 1010.4 hPa Calm     72% 0 mm
19:24 12.7 °C 7.7 °C 1010.4 hPa Calm     72% 0 mm
19:29 12.8 °C 7.8 °C 1010.4 hPa Calm     72% 0 mm
19:34 13 °C 8.1 °C 1010.4 hPa Calm     72% 0 mm
19:39 13.2 °C 8.3 °C 1010.4 hPa Calm     72% 0 mm
19:44 13.4 °C 8.3 °C 1010.4 hPa Calm     71% 0 mm
19:49 13.6 °C 8.6 °C 1010.4 hPa Calm     72% 0 mm
19:54 13.6 °C 8.7 °C 1010.4 hPa Calm     72% 0 mm
19:59 14.1 °C 8.7 °C 1010.4 hPa Calm   3.2 km/h 70% 0 mm
20:04 14.4 °C 8.6 °C 1010.4 hPa Calm   3.2 km/h 68% 0 mm
20:09 14.6 °C 8.7 °C 1010 hPa Calm     68% 0 mm
20:14 14.4 °C 8.8 °C 1010 hPa Calm     69% 0 mm
20:19 14.4 °C 8.8 °C 1010 hPa Calm     69% 0 mm
20:24 14.6 °C 8.7 °C 1010 hPa Calm     68% 0 mm
20:29 14.5 °C 8.9 °C 1010.4 hPa Calm     69% 0 mm
20:34 14.4 °C 8.8 °C 1010.4 hPa Calm   6.4 km/h 69% 0 mm
20:39 14.4 °C 8.6 °C 1010 hPa Calm   6.4 km/h 68% 0 mm
20:44 14.3 °C 8.5 °C 1010.4 hPa Calm   4.8 km/h 68% 0 mm
20:49 14.3 °C 8.4 °C 1010 hPa SE 1.6 km/h 4.8 km/h 68% 0 mm
20:54 14 °C 8.4 °C 1010 hPa Calm   3.2 km/h 69% 0 mm
20:59 13.8 °C 8.2 °C 1010 hPa Calm     69% 0 mm
21:04 13.7 °C 8.1 °C 1010 hPa Calm   3.2 km/h 69% 0 mm
21:09 13.4 °C 8 °C 1010 hPa Calm   1.6 km/h 70% 0 mm
21:14 13.2 °C 7.8 °C 1010 hPa Calm     70% 0 mm
21:19 13.2 °C 7.8 °C 1010 hPa Calm   3.2 km/h 70% 0 mm
21:24 13.2 °C 7.7 °C 1009.7 hPa SE 3.2 km/h 4.8 km/h 69% 0 mm
21:29 13.3 °C 7.3 °C 1010 hPa SE 1.6 km/h 3.2 km/h 67% 0 mm
21:34 13.5 °C 7.3 °C 1010 hPa SE 3.2 km/h 4.8 km/h 66% 0 mm
21:39 13.7 °C 7.2 °C 1009.7 hPa Calm   8 km/h 65% 0 mm
21:44 13.8 °C 6.9 °C 1009.7 hPa SSE 1.6 km/h 8 km/h 63% 0 mm
21:49 14.1 °C 6.9 °C 1010 hPa SSE 1.6 km/h 8 km/h 62% 0 mm
21:54 14.2 °C 6.7 °C 1010 hPa SSE 3.2 km/h 8 km/h 61% 0 mm
21:59 14.2 °C 6.5 °C 1010 hPa SSE 3.2 km/h 8 km/h 60% 0 mm
22:04 14.3 °C 6.4 °C 1009.7 hPa SSE 4.8 km/h 16.1 km/h 59% 0 mm
22:09 14.5 °C 6.1 °C 1009.7 hPa SSE 4.8 km/h 16.1 km/h 57% 0 mm
22:14 14.6 °C 6.2 °C 1009.7 hPa South 11.3 km/h 16.1 km/h 57% 0 mm
22:19 14.8 °C 5.8 °C 1009.7 hPa SSE 6.4 km/h 16.1 km/h 55% 0 mm
22:24 14.9 °C 5.9 °C 1009.7 hPa SSE 6.4 km/h 14.5 km/h 55% 0 mm
22:29 15 °C 5.8 °C 1009.7 hPa South 4.8 km/h 12.9 km/h 54% 0 mm
22:34 14.9 °C 5.7 °C 1009.7 hPa SSE 6.4 km/h 16.1 km/h 54% 0 mm
22:39 14.9 °C 5.7 °C 1009.4 hPa SSE 9.7 km/h 12.9 km/h 54% 0 mm
22:44 14.9 °C 5.7 °C 1009.4 hPa South 4.8 km/h 12.9 km/h 54% 0 mm
22:49 14.9 °C 5.4 °C 1009.4 hPa SSE 6.4 km/h 19.3 km/h 53% 0 mm
22:54 14.9 °C 5.4 °C 1009.4 hPa SSE 8 km/h 19.3 km/h 53% 0 mm
22:59 14.9 °C 5.4 °C 1009.4 hPa SSE 8 km/h 17.7 km/h 53% 0 mm
23:04 14.9 °C 5.4 °C 1009.4 hPa SSE 6.4 km/h 14.5 km/h 53% 0 mm
23:09 14.8 °C 5.3 °C 1009.4 hPa SSE 6.4 km/h 16.1 km/h 53% 0 mm
23:19 14.9 °C 5.4 °C 1009.4 hPa South 6.4 km/h 16.1 km/h 53% 0 mm
23:24 14.8 °C 5.3 °C 1009.4 hPa SSE 6.4 km/h 16.1 km/h 53% 0 mm
23:29 14.8 °C 5.1 °C 1009.4 hPa SE 9.7 km/h 16.1 km/h 52% 0 mm
23:34 14.8 °C 5.1 °C 1009 hPa South 4.8 km/h 17.7 km/h 52% 0 mm
23:39 14.8 °C 5 °C 1009 hPa South 3.2 km/h 20.9 km/h 52% 0 mm
23:44 14.7 °C 4.9 °C 1009 hPa SSE 9.7 km/h 14.5 km/h 52% 0 mm
23:49 14.6 °C 4.8 °C 1009 hPa SSE 11.3 km/h 14.5 km/h 52% 0 mm
23:54 14.6 °C 4.8 °C 1009 hPa SE 1.6 km/h 14.5 km/h 52% 0 mm
23:59 14.6 °C 4.8 °C 1009 hPa SSE 6.4 km/h 16.1 km/h 52% 0 mm
Buffalo, New York, USA
Compliments of Weather Underground - 2.5 mb